EGXW METAR and TAF | Updated Today

EGXW METAR

RAF Waddington

Observation time: 18 min. ago

EGXW 061950Z 24007KT CAVOK 04/00 Q1038 NOSIG RMK BLU BLU

Need help? Read our tutorial on how to read METARs or read the parsed version below.

RAF Waddington (EGXW) METAR

  • Weather conditions on Mon, 06 Feb 2023 19:50:00 +0000 (18 min. ago):
  • Present conditions: Dry
  • Clouds: Clear skies
  • Visibility: Greater than 10 km
  • Wind: 240 degrees at 7 knots
  • Temperature: 4 celsius
  • Dew point: 0 celsius
  • Pressure: 1038 millibars
  • Remarks: BLU BLU


Useful to know...

EGXW TAF

RAF Waddington

TAF EGXW 061322Z 0615/0709 22008KT CAVOK
Observation time: 6:46 hr. ago
Need help? Read our tutorial on how to read TAFs or read the parsed version below.

Parsed version of TAF for RAF Waddington (EGXW)

  • From 06 February at 15:00 UTC, to day 07 of the month at 09:00 UTC
  • Visibility: Greater than 10 km
  • Wind: 220 degrees at 8